createdAt,value
2023-04-28T00:01:14.082Z,12.80
2023-04-28T00:03:42.755Z,14.43
2023-04-28T00:06:11.346Z,14.45
2023-04-28T00:08:38.862Z,14.27
2023-04-28T00:11:10.453Z,13.52
2023-04-28T00:13:38.710Z,12.80
2023-04-28T00:16:06.044Z,13.68
2023-04-28T00:18:33.786Z,14.25
2023-04-28T00:21:01.720Z,14.57
2023-04-28T00:23:29.150Z,13.50
2023-04-28T00:25:57.538Z,13.63
2023-04-28T00:30:55.709Z,13.32
2023-04-28T00:33:23.040Z,12.82
2023-04-28T00:35:50.151Z,13.10
2023-04-28T00:38:17.819Z,13.98
2023-04-28T00:40:44.626Z,12.40
2023-04-28T00:43:11.962Z,12.88
2023-04-28T00:45:38.938Z,12.50
2023-04-28T00:48:08.592Z,12.38
2023-04-28T00:50:36.608Z,13.30
2023-04-28T00:53:04.918Z,12.68
2023-04-28T00:55:35.240Z,12.68
2023-04-28T00:58:03.103Z,12.07
2023-04-28T01:00:30.030Z,11.93
2023-04-28T01:02:58.309Z,12.10
2023-04-28T01:05:27.107Z,12.68
2023-04-28T01:07:54.471Z,12.65
2023-04-28T01:10:21.863Z,12.75
2023-04-28T01:12:49.658Z,11.38
2023-04-28T01:15:19.124Z,11.77
2023-04-28T01:17:48.144Z,13.68
2023-04-28T01:20:15.589Z,12.25
2023-04-28T01:22:43.189Z,12.63
2023-04-28T01:25:11.168Z,13.25
2023-04-28T01:27:38.301Z,11.70
2023-04-28T01:30:06.974Z,12.38
2023-04-28T01:32:34.381Z,11.65
2023-04-28T01:35:02.918Z,12.00
2023-04-28T01:37:30.616Z,11.45
2023-04-28T01:39:57.490Z,12.73
2023-04-28T01:42:25.800Z,11.85
2023-04-28T01:44:53.099Z,11.32
2023-04-28T01:47:20.669Z,11.88
2023-04-28T01:49:48.479Z,12.05
2023-04-28T01:52:15.814Z,11.63
2023-04-28T01:54:43.098Z,12.25
2023-04-28T01:57:10.555Z,13.38
2023-04-28T01:59:38.128Z,13.30
2023-04-28T02:02:06.829Z,13.80
2023-04-28T02:04:34.102Z,13.50
2023-04-28T02:07:01.471Z,12.07
2023-04-28T02:09:28.418Z,13.18
2023-04-28T02:12:00.285Z,13.02
2023-04-28T02:14:27.885Z,12.77
2023-04-28T02:16:55.012Z,11.90
2023-04-28T02:19:22.239Z,13.40
2023-04-28T02:21:49.298Z,12.43
2023-04-28T02:24:16.415Z,12.65
2023-04-28T02:26:44.125Z,13.27
2023-04-28T02:29:11.055Z,13.00
2023-04-28T02:31:38.803Z,13.32
2023-04-28T02:34:05.848Z,12.77
2023-04-28T02:36:33.854Z,13.13
2023-04-28T02:39:01.461Z,13.15
2023-04-28T02:41:31.170Z,12.73
2023-04-28T02:43:58.181Z,13.85
2023-04-28T02:46:25.837Z,13.20
2023-04-28T02:48:52.731Z,12.77
2023-04-28T02:51:20.288Z,13.63
2023-04-28T02:53:47.186Z,14.73
2023-04-28T02:56:14.817Z,13.10
2023-04-28T02:58:41.754Z,12.30
2023-04-28T03:01:09.149Z,13.00
2023-04-28T03:03:36.363Z,12.77
2023-04-28T03:06:04.192Z,13.35
2023-04-28T03:08:31.250Z,11.65
2023-04-28T03:10:58.637Z,14.02
2023-04-28T03:13:25.760Z,13.80
2023-04-28T03:15:53.303Z,13.43
2023-04-28T03:18:20.322Z,13.55
2023-04-28T03:20:48.597Z,12.43
2023-04-28T03:23:15.743Z,14.27
2023-04-28T03:25:43.171Z,14.30
2023-04-28T03:28:10.844Z,13.52
2023-04-28T03:30:38.367Z,14.30
2023-04-28T03:33:05.571Z,13.32
2023-04-28T03:35:33.236Z,13.25
2023-04-28T03:38:00.134Z,13.60
2023-04-28T03:40:27.986Z,13.68
2023-04-28T03:43:15.105Z,13.88
2023-04-28T03:46:05.037Z,14.52
2023-04-28T03:48:33.053Z,13.95
2023-04-28T03:51:00.385Z,14.38
2023-04-28T03:53:27.540Z,15.60
2023-04-28T03:55:55.171Z,14.07
2023-04-28T03:58:22.294Z,13.05
2023-04-28T04:00:50.486Z,14.80
2023-04-28T04:03:17.743Z,13.82
2023-04-28T04:05:45.889Z,14.10
2023-04-28T04:08:13.478Z,13.35
2023-04-28T04:10:40.710Z,13.02
2023-04-28T04:13:08.163Z,12.60
2023-04-28T04:15:36.074Z,12.68
2023-04-28T04:18:05.564Z,12.35
2023-04-28T04:20:50.593Z,12.32
2023-04-28T04:23:18.145Z,12.55
2023-04-28T04:25:46.065Z,14.32
2023-04-28T04:28:13.343Z,13.00
2023-04-28T04:30:40.781Z,12.15
2023-04-28T04:33:08.346Z,13.73
2023-04-28T04:35:35.893Z,13.48
2023-04-28T04:38:03.733Z,13.77
2023-04-28T04:40:31.153Z,14.30
2023-04-28T04:42:59.480Z,14.82
2023-04-28T04:45:28.605Z,14.25
2023-04-28T04:47:56.373Z,13.20
2023-04-28T04:50:24.200Z,14.48
2023-04-28T04:52:51.341Z,14.43
2023-04-28T04:55:19.283Z,13.18
2023-04-28T04:57:46.509Z,13.93
2023-04-28T05:00:22.950Z,13.50
2023-04-28T05:02:50.105Z,13.38
2023-04-28T05:05:21.832Z,14.45
2023-04-28T05:08:02.590Z,13.25
2023-04-28T05:10:30.107Z,13.40
2023-04-28T05:12:57.129Z,13.73
2023-04-28T05:15:24.855Z,13.93
2023-04-28T05:18:17.928Z,13.20
2023-04-28T05:20:46.079Z,14.10
2023-04-28T05:23:14.671Z,13.85
2023-04-28T05:25:42.564Z,14.43
2023-04-28T05:28:10.723Z,13.85
2023-04-28T05:30:38.036Z,16.00
2023-04-28T05:33:05.411Z,14.07
2023-04-28T05:35:32.762Z,13.25
2023-04-28T05:38:00.171Z,14.18
2023-04-28T05:40:28.295Z,13.15
2023-04-28T05:42:56.444Z,12.82
2023-04-28T05:45:23.873Z,12.65
2023-04-28T05:47:51.095Z,13.27
2023-04-28T05:50:19.000Z,12.65
2023-04-28T05:52:45.918Z,13.75
2023-04-28T05:55:14.439Z,12.75
2023-04-28T05:57:52.510Z,13.55
2023-04-28T06:00:22.292Z,12.32
2023-04-28T06:02:52.034Z,12.98
2023-04-28T06:05:19.689Z,11.55
2023-04-28T06:07:49.972Z,12.68
2023-04-28T06:10:19.064Z,13.38
2023-04-28T06:12:46.124Z,13.05
2023-04-28T06:15:14.001Z,12.68
2023-04-28T06:17:41.662Z,13.30
2023-04-28T06:20:11.255Z,12.27
2023-04-28T06:22:38.699Z,12.40
2023-04-28T06:25:08.139Z,11.95
2023-04-28T06:27:46.203Z,12.52
2023-04-28T06:30:19.992Z,10.43
2023-04-28T06:32:47.685Z,12.20
2023-04-28T06:35:16.779Z,10.85
2023-04-28T06:37:44.523Z,10.68
2023-04-28T06:40:11.890Z,10.05
2023-04-28T06:42:42.917Z,10.02
2023-04-28T06:45:13.210Z,7.55
2023-04-28T06:47:41.020Z,8.27
2023-04-28T06:50:10.389Z,9.23
2023-04-28T06:52:39.700Z,8.40
2023-04-28T06:55:11.733Z,8.07
2023-04-28T06:57:39.044Z,7.82
2023-04-28T07:00:06.960Z,8.90
2023-04-28T07:02:35.335Z,6.88
2023-04-28T07:05:03.932Z,7.38
2023-04-28T07:07:31.888Z,6.85
2023-04-28T07:10:00.505Z,7.03
2023-04-28T07:12:27.846Z,7.65
2023-04-28T07:14:55.992Z,6.22
2023-04-28T07:17:23.165Z,6.97
2023-04-28T07:19:51.033Z,7.13
2023-04-28T07:22:18.412Z,7.32
2023-04-28T07:24:45.906Z,6.80
2023-04-28T07:27:13.177Z,5.82
2023-04-28T07:29:40.379Z,6.30
2023-04-28T07:32:10.715Z,6.43
2023-04-28T07:34:38.574Z,5.03
2023-04-28T07:37:05.893Z,5.90
2023-04-28T07:39:36.777Z,5.68
2023-04-28T07:42:04.172Z,4.68
2023-04-28T07:44:31.726Z,6.43
2023-04-28T07:47:00.864Z,6.50
2023-04-28T07:49:31.890Z,6.15
2023-04-28T07:51:59.433Z,5.75
2023-04-28T07:54:26.665Z,3.83
2023-04-28T07:56:54.268Z,2.60
2023-04-28T07:59:21.395Z,2.65
2023-04-28T08:01:48.916Z,3.47
2023-04-28T08:04:17.862Z,4.07
2023-04-28T08:06:45.840Z,3.33
2023-04-28T08:09:13.149Z,3.53
2023-04-28T08:11:40.197Z,3.70
2023-04-28T08:14:07.953Z,3.70
2023-04-28T08:16:38.484Z,3.55
2023-04-28T08:19:06.209Z,3.47
2023-04-28T08:21:34.273Z,3.63
2023-04-28T08:24:02.187Z,3.22
2023-04-28T08:26:29.376Z,3.42
2023-04-28T08:28:57.064Z,2.35
2023-04-28T08:31:24.355Z,2.53
2023-04-28T08:33:53.165Z,2.97
2023-04-28T08:36:21.304Z,2.20
2023-04-28T08:38:48.812Z,5.15
2023-04-28T08:41:16.960Z,3.13
2023-04-28T08:43:45.696Z,4.30
2023-04-28T08:46:14.974Z,3.75
2023-04-28T08:48:47.584Z,3.05
2023-04-28T08:51:17.201Z,2.90
2023-04-28T08:54:11.762Z,3.05
2023-04-28T08:56:39.307Z,2.83
2023-04-28T08:59:07.769Z,3.05
2023-04-28T09:01:34.849Z,3.63
2023-04-28T09:04:04.246Z,3.03
2023-04-28T09:06:40.679Z,3.00
2023-04-28T09:09:34.159Z,3.38
2023-04-28T09:12:05.247Z,3.00
2023-04-28T09:14:37.428Z,3.13
2023-04-28T09:17:13.042Z,3.13
2023-04-28T09:19:43.328Z,3.00
2023-04-28T09:22:21.797Z,2.95
2023-04-28T09:24:53.284Z,3.50
2023-04-28T09:27:27.486Z,2.90
2023-04-28T09:29:55.103Z,3.90
2023-04-28T09:32:23.650Z,3.67
2023-04-28T09:34:57.343Z,2.75
2023-04-28T09:37:27.534Z,3.03
2023-04-28T09:39:55.475Z,3.45
2023-04-28T09:42:37.498Z,2.90
2023-04-28T09:45:10.208Z,3.42
2023-04-28T09:47:46.838Z,3.03
2023-04-28T09:50:17.499Z,3.38
2023-04-28T09:52:56.933Z,3.88
2023-04-28T09:55:25.279Z,2.97
2023-04-28T09:57:54.866Z,3.30
2023-04-28T10:00:23.139Z,2.90
2023-04-28T10:02:51.962Z,3.15
2023-04-28T10:05:23.221Z,2.70
2023-04-28T10:07:51.537Z,3.63
2023-04-28T10:10:19.443Z,2.10
2023-04-28T10:12:47.233Z,2.70
2023-04-28T10:15:14.549Z,2.33
2023-04-28T10:17:41.902Z,2.50
2023-04-28T10:20:11.135Z,2.50
2023-04-28T10:22:56.261Z,2.58
2023-04-28T10:25:35.580Z,2.80
2023-04-28T10:28:07.927Z,2.22
2023-04-28T10:30:36.763Z,2.90
2023-04-28T10:33:16.204Z,2.28
2023-04-28T10:35:47.955Z,2.20
2023-04-28T10:38:21.501Z,2.35
2023-04-28T10:40:51.056Z,2.80
2023-04-28T10:43:33.237Z,2.20
2023-04-28T10:46:04.074Z,2.55
2023-04-28T10:48:34.604Z,2.20
2023-04-28T10:51:05.598Z,2.25
2023-04-28T10:53:54.322Z,2.83
2023-04-28T10:56:25.399Z,2.10
2023-04-28T10:58:53.762Z,2.13
2023-04-28T11:01:25.269Z,2.10
2023-04-28T11:04:08.287Z,2.38
2023-04-28T11:06:37.489Z,2.35
2023-04-28T11:09:33.517Z,2.30
2023-04-28T11:12:01.145Z,2.40
2023-04-28T11:14:35.117Z,2.42
2023-04-28T11:17:11.495Z,3.08
2023-04-28T11:19:44.386Z,2.08
2023-04-28T11:22:20.335Z,2.75
2023-04-28T11:24:59.075Z,2.70
2023-04-28T11:27:27.922Z,3.95
2023-04-28T11:29:54.904Z,2.53
2023-04-28T11:32:28.664Z,2.67
2023-04-28T11:34:56.082Z,2.70
2023-04-28T11:37:23.708Z,3.33
2023-04-28T11:39:51.515Z,2.22
2023-04-28T11:42:19.004Z,2.58
2023-04-28T11:44:52.094Z,2.58
2023-04-28T11:47:31.563Z,3.47
2023-04-28T11:49:59.285Z,2.10
2023-04-28T11:52:27.505Z,2.80
2023-04-28T11:54:56.776Z,2.50
2023-04-28T11:57:24.268Z,2.90
2023-04-28T11:59:51.710Z,3.63
2023-04-28T12:02:28.544Z,2.80
2023-04-28T12:04:57.136Z,2.60
2023-04-28T12:07:25.491Z,2.72
2023-04-28T12:10:13.423Z,2.42
2023-04-28T12:12:50.797Z,2.75
2023-04-28T12:15:21.049Z,2.70
2023-04-28T12:17:50.922Z,3.38
2023-04-28T12:20:38.699Z,3.13
2023-04-28T12:23:08.042Z,2.72
2023-04-28T12:25:48.127Z,2.97
2023-04-28T12:28:16.537Z,3.00
2023-04-28T12:30:44.091Z,3.05
2023-04-28T12:33:25.756Z,3.17
2023-04-28T12:35:55.498Z,3.83
2023-04-28T12:38:23.847Z,2.70
2023-04-28T12:40:51.119Z,3.05
2023-04-28T12:43:19.290Z,3.22
2023-04-28T12:45:46.825Z,3.30
2023-04-28T12:48:16.705Z,2.85
2023-04-28T12:50:44.340Z,3.30
2023-04-28T12:53:12.180Z,3.35
2023-04-28T12:55:40.687Z,3.38
2023-04-28T12:58:08.027Z,3.22
2023-04-28T13:00:35.772Z,3.60
2023-04-28T13:03:03.191Z,3.50
2023-04-28T13:05:32.256Z,3.25
2023-04-28T13:08:00.755Z,3.63
2023-04-28T13:10:29.481Z,4.40
2023-04-28T13:12:58.158Z,4.10
2023-04-28T13:15:25.778Z,4.70
2023-04-28T13:17:52.937Z,4.45
2023-04-28T13:20:20.070Z,3.85
2023-04-28T13:22:48.045Z,4.07
2023-04-28T13:25:15.912Z,3.60
2023-04-28T13:27:43.705Z,4.95
2023-04-28T13:30:11.996Z,4.93
2023-04-28T13:32:40.272Z,3.33
2023-04-28T13:35:09.241Z,3.92
2023-04-28T13:37:42.611Z,4.35
2023-04-28T13:40:11.801Z,4.72
2023-04-28T13:42:39.600Z,3.88
2023-04-28T13:45:07.259Z,4.65
2023-04-28T13:47:35.079Z,4.22
2023-04-28T13:50:02.608Z,4.43
2023-04-28T13:52:30.502Z,4.22
2023-04-28T13:54:57.980Z,4.38
2023-04-28T13:57:25.673Z,4.18
2023-04-28T13:59:53.308Z,4.13
2023-04-28T14:02:20.827Z,4.55
2023-04-28T14:04:49.160Z,4.60
2023-04-28T14:07:17.063Z,4.00
2023-04-28T14:09:44.563Z,4.03
2023-04-28T14:12:13.979Z,5.65
2023-04-28T14:14:41.612Z,4.82
2023-04-28T14:17:10.471Z,4.30
2023-04-28T14:19:37.906Z,5.03
2023-04-28T14:22:05.621Z,4.97
2023-04-28T14:24:32.971Z,4.63
2023-04-28T14:27:00.551Z,4.85
2023-04-28T14:29:27.721Z,4.78
2023-04-28T14:31:55.262Z,4.80
2023-04-28T14:34:22.839Z,4.22
2023-04-28T14:36:51.094Z,4.45
2023-04-28T14:39:18.719Z,4.55
2023-04-28T14:41:46.427Z,5.38
2023-04-28T14:44:13.654Z,4.68
2023-04-28T14:46:41.424Z,4.82
2023-04-28T14:49:09.537Z,5.28
2023-04-28T14:51:36.877Z,4.75
2023-04-28T14:54:04.521Z,4.88
2023-04-28T14:56:33.350Z,5.13
2023-04-28T14:59:01.150Z,4.53
2023-04-28T15:01:29.218Z,4.32
2023-04-28T15:03:56.290Z,4.28
2023-04-28T15:06:23.624Z,4.70
2023-04-28T15:08:50.903Z,4.65
2023-04-28T15:11:18.751Z,4.13
2023-04-28T15:13:46.044Z,4.85
2023-04-28T15:16:13.826Z,4.57
2023-04-28T15:18:41.065Z,3.80
2023-04-28T15:21:08.796Z,4.28
2023-04-28T15:23:36.066Z,4.60
2023-04-28T15:26:03.699Z,3.75
2023-04-28T15:28:31.377Z,5.05
2023-04-28T15:30:58.590Z,4.07
2023-04-28T15:33:25.825Z,4.00
2023-04-28T15:35:53.082Z,4.20
2023-04-28T15:38:20.706Z,4.13
2023-04-28T15:40:49.941Z,4.68
2023-04-28T15:43:17.142Z,4.88
2023-04-28T15:45:47.342Z,4.40
2023-04-28T15:48:15.484Z,4.47
2023-04-28T15:50:44.631Z,5.10
2023-04-28T15:53:11.869Z,4.40
2023-04-28T15:55:39.375Z,4.55
2023-04-28T15:58:06.532Z,4.25
2023-04-28T16:00:34.400Z,4.75
2023-04-28T16:03:02.025Z,4.80
2023-04-28T16:05:29.922Z,4.43
2023-04-28T16:07:57.035Z,4.85
2023-04-28T16:10:24.560Z,6.32
2023-04-28T16:12:51.818Z,5.07
2023-04-28T16:15:19.395Z,4.85
2023-04-28T16:17:46.424Z,4.38
2023-04-28T16:20:13.963Z,4.22
2023-04-28T16:22:41.874Z,4.80
2023-04-28T16:25:11.747Z,4.72
2023-04-28T16:27:40.640Z,4.40
2023-04-28T16:30:09.570Z,4.80
2023-04-28T16:32:38.529Z,4.93
2023-04-28T16:35:10.827Z,4.75
2023-04-28T16:37:41.033Z,4.95
2023-04-28T16:40:09.593Z,5.07
2023-04-28T16:42:37.184Z,5.20
2023-04-28T16:45:05.410Z,4.82
2023-04-28T16:47:33.526Z,5.07
2023-04-28T16:50:01.043Z,4.90
2023-04-28T16:52:28.062Z,4.65
2023-04-28T16:54:56.074Z,5.28
2023-04-28T16:57:23.184Z,4.60
2023-04-28T16:59:51.713Z,4.28
2023-04-28T17:02:19.207Z,5.18
2023-04-28T17:04:47.165Z,4.30
2023-04-28T17:07:14.894Z,4.95
2023-04-28T17:09:42.577Z,5.03
2023-04-28T17:12:10.053Z,4.40
2023-04-28T17:14:38.889Z,4.20
2023-04-28T17:17:05.992Z,3.95
2023-04-28T17:19:33.317Z,4.68
2023-04-28T17:22:00.909Z,5.00
2023-04-28T17:24:28.586Z,4.40
2023-04-28T17:26:55.980Z,4.75
2023-04-28T17:29:24.740Z,4.68
2023-04-28T17:31:53.761Z,4.43
2023-04-28T17:34:21.587Z,5.32
2023-04-28T17:36:48.734Z,4.82
2023-04-28T17:39:16.792Z,4.90
2023-04-28T17:41:45.374Z,4.97
2023-04-28T17:44:13.275Z,4.72
2023-04-28T17:46:40.699Z,4.55
2023-04-28T17:49:08.872Z,5.65
2023-04-28T17:51:37.527Z,4.80
2023-04-28T17:54:09.719Z,5.53
2023-04-28T17:56:38.454Z,6.13
2023-04-28T17:59:06.400Z,4.95
2023-04-28T18:01:35.249Z,5.32
2023-04-28T18:04:02.722Z,5.40
2023-04-28T18:06:30.605Z,4.65
2023-04-28T18:08:57.999Z,5.43
2023-04-28T18:11:27.284Z,5.97
2023-04-28T18:13:54.964Z,5.07
2023-04-28T18:16:22.674Z,5.35
2023-04-28T18:18:50.177Z,5.25
2023-04-28T18:21:17.708Z,5.35
2023-04-28T18:23:46.696Z,5.40
2023-04-28T18:26:13.984Z,5.35
2023-04-28T18:28:41.585Z,5.55
2023-04-28T18:31:09.060Z,5.15
2023-04-28T18:33:36.641Z,5.70
2023-04-28T18:36:07.332Z,5.93
2023-04-28T18:38:36.511Z,6.20
2023-04-28T18:41:17.954Z,6.90
2023-04-28T18:43:45.746Z,6.18
2023-04-28T18:46:12.877Z,6.22
2023-04-28T18:48:40.864Z,6.35
2023-04-28T18:51:08.245Z,6.70
2023-04-28T18:53:36.328Z,7.93
2023-04-28T18:56:03.552Z,6.63
2023-04-28T18:58:31.386Z,6.40
2023-04-28T19:00:58.406Z,6.82
2023-04-28T19:03:26.328Z,7.20
2023-04-28T19:05:53.872Z,6.05
2023-04-28T19:08:21.424Z,7.15
2023-04-28T19:10:49.117Z,7.38
2023-04-28T19:13:17.610Z,7.40
2023-04-28T19:15:44.729Z,7.35
2023-04-28T19:18:12.823Z,7.80
2023-04-28T19:20:42.365Z,7.57
2023-04-28T19:23:10.151Z,8.60
2023-04-28T19:25:37.698Z,7.97
2023-04-28T19:28:06.298Z,7.75
2023-04-28T19:30:33.273Z,8.27
2023-04-28T19:33:00.992Z,8.00
2023-04-28T19:35:28.596Z,7.85
2023-04-28T19:37:56.029Z,8.45
2023-04-28T19:40:23.172Z,9.95
2023-04-28T19:42:51.288Z,9.77
2023-04-28T19:45:18.322Z,10.25
2023-04-28T19:47:45.751Z,11.38
2023-04-28T19:50:12.720Z,9.73
2023-04-28T19:52:40.287Z,10.43
2023-04-28T19:55:08.189Z,10.27
2023-04-28T19:57:36.026Z,9.35
2023-04-28T20:00:04.505Z,10.43
2023-04-28T20:02:35.670Z,10.70
2023-04-28T20:05:04.062Z,10.65
2023-04-28T20:07:31.836Z,9.98
2023-04-28T20:09:58.777Z,10.77
2023-04-28T20:12:26.672Z,11.20
2023-04-28T20:14:54.498Z,11.80
2023-04-28T20:17:22.268Z,12.63
2023-04-28T20:19:49.665Z,12.25
2023-04-28T20:22:17.274Z,11.55
2023-04-28T20:24:44.609Z,12.93
2023-04-28T20:27:12.595Z,13.00
2023-04-28T20:29:39.926Z,11.18
2023-04-28T20:32:08.015Z,13.05
2023-04-28T20:34:37.022Z,12.13
2023-04-28T20:37:06.548Z,11.80
2023-04-28T20:39:34.311Z,12.27
2023-04-28T20:42:02.596Z,12.05
2023-04-28T20:44:29.871Z,12.82
2023-04-28T20:46:57.331Z,12.50
2023-04-28T20:49:25.170Z,12.93
2023-04-28T20:51:52.650Z,12.40
2023-04-28T20:54:20.207Z,12.05
2023-04-28T20:56:47.583Z,12.80
2023-04-28T20:59:14.739Z,12.15
2023-04-28T21:01:42.179Z,12.80
2023-04-28T21:04:10.153Z,11.88
2023-04-28T21:06:38.277Z,11.65
2023-04-28T21:09:06.174Z,12.00
2023-04-28T21:11:34.096Z,11.65
2023-04-28T21:14:01.622Z,11.15
2023-04-28T21:16:28.944Z,11.18
2023-04-28T21:18:56.835Z,11.60
2023-04-28T21:21:24.103Z,11.30
2023-04-28T21:23:51.117Z,11.85
2023-04-28T21:26:20.655Z,12.13
2023-04-28T21:28:47.730Z,11.27
2023-04-28T21:31:15.435Z,12.02
2023-04-28T21:33:42.461Z,12.60
2023-04-28T21:36:09.753Z,13.18
2023-04-28T21:38:38.228Z,11.77
2023-04-28T21:41:07.776Z,12.77
2023-04-28T21:43:35.015Z,12.88
2023-04-28T21:46:02.924Z,13.50
2023-04-28T21:48:29.870Z,12.25
2023-04-28T21:50:58.376Z,13.38
2023-04-28T21:53:25.273Z,16.00
2023-04-28T21:55:52.956Z,12.20
2023-04-28T21:58:20.069Z,13.60
2023-04-28T22:00:48.050Z,13.05
2023-04-28T22:03:15.750Z,12.73
2023-04-28T22:05:46.836Z,13.15
2023-04-28T22:08:14.128Z,14.07
2023-04-28T22:10:44.286Z,13.10
2023-04-28T22:13:15.976Z,12.73
2023-04-28T22:15:43.644Z,13.20
2023-04-28T22:18:10.868Z,14.43
2023-04-28T22:20:38.574Z,13.52
2023-04-28T22:23:05.499Z,14.07
2023-04-28T22:25:32.887Z,13.95
2023-04-28T22:28:00.419Z,12.23
2023-04-28T22:30:30.878Z,13.90
2023-04-28T22:32:58.523Z,13.75
2023-04-28T22:35:26.168Z,14.07
2023-04-28T22:37:53.464Z,14.48
2023-04-28T22:40:20.774Z,14.07
2023-04-28T22:42:47.921Z,14.68
2023-04-28T22:45:15.811Z,13.15
2023-04-28T22:47:43.109Z,15.25
2023-04-28T22:50:11.595Z,14.18
2023-04-28T22:52:39.106Z,14.57
2023-04-28T22:55:07.321Z,14.63
2023-04-28T22:57:34.868Z,13.98
2023-04-28T23:00:04.148Z,13.43
2023-04-28T23:02:32.030Z,14.65
2023-04-28T23:05:00.043Z,14.27
2023-04-28T23:07:27.407Z,15.60
2023-04-28T23:09:54.963Z,13.43
2023-04-28T23:12:22.583Z,14.52
2023-04-28T23:14:50.019Z,14.68
2023-04-28T23:17:17.508Z,14.57
2023-04-28T23:19:44.857Z,14.25
2023-04-28T23:22:12.207Z,14.27
2023-04-28T23:24:40.149Z,14.57
2023-04-28T23:27:07.253Z,14.70
2023-04-28T23:29:35.943Z,14.57
2023-04-28T23:32:04.376Z,14.93
2023-04-28T23:34:31.744Z,15.07
2023-04-28T23:36:59.332Z,15.18
2023-04-28T23:39:30.250Z,14.75
2023-04-28T23:41:58.761Z,14.93
2023-04-28T23:44:26.253Z,14.20
2023-04-28T23:46:56.119Z,15.10
2023-04-28T23:49:24.257Z,14.32
2023-04-28T23:51:51.779Z,14.75
2023-04-28T23:54:19.897Z,15.18
2023-04-28T23:56:47.531Z,16.08
2023-04-28T23:59:15.102Z,14.63
